x

8419317 - Wells, Me (welm1) Weather Station

7:54 - Sat 25th Oct 2014 All times are EDT. -4 hours from GMT.

  • Wind
  • Sea Temp 49°f
  • Luft Temp 47°f
  • Sea Pressure 1005.5mb
  • 8419317 - Wells, Me
  • 8419317 - Wells, Me

More Historic Weather Station data

Upgrade to MSW Pro to gain access to the past 30 days of data for over 8000 Wavebouys and Weather Stations around the globe.

Join Pro

Comparision Forecast

View Surf forecast
   
Sa 10/25 7:54  -  1 mph 1005.5mb 49f 47f
7:48  -  3 mph 1005.5mb 49f 46f
7:42 2 3 mph 1005.4mb 49f 46f
7:36 1 2 mph 1005.5mb 50f 46f
7:30 1 3 mph 1005.4mb 50f 46f
7:24 2 5 mph 1005.5mb 50f 46f
7:18 6 8 mph 1005.4mb 50f 46f
7:12 7 9 mph 1005.2mb 50f 46f
7:06 5 7 mph 1005.2mb 50f 46f
7:00 2 5 mph 1005.2mb 50f 46f
6:54 1 3 mph 1005.2mb 50f 46f
6:48 1 3 mph 1005.1mb 50f 46f
6:42 2 3 mph 1005.1mb 50f 46f
6:36 3 5 mph 1005.1mb 50f 46f
6:30 1 3 mph 1005mb 50f 46f
6:24 1 2 mph 1005mb 50f 46f
6:18 1 3 mph 1005mb 50f 46f
6:12 2 5 mph 1005mb 50f 46f
6:06 2 5 mph 1005.1mb 50f 46f
6:00 3 5 mph 1005.2mb 50f 46f
5:54 3 5 mph 1005.2mb 50f 46f
5:48 1 3 mph 1005.2mb 50f 46f
5:42 2 3 mph 1005.3mb 50f 46f
5:36  -  2 mph 1005.3mb 51f 46f
5:30  -  3 mph 1005.3mb 51f 46f
5:24 1 5 mph 1005.3mb 51f 46f
5:18 3 6 mph 1005.3mb 51f 46f
5:12 3 6 mph 1005.2mb 51f 46f
5:06 3 8 mph 1005.3mb 51f 46f
5:00 6 9 mph 1005.3mb 51f 46f
4:54 6 9 mph 1005.4mb 51f 45f
4:48 6 9 mph 1005.5mb 51f 46f
4:42 6 10 mph 1005.4mb 51f 46f
4:36 8 11 mph 1005.3mb 51f 46f
4:30 8 13 mph 1005.3mb 51f 46f
4:24 7 10 mph 1005.2mb 51f 46f
4:18 7 10 mph 1005.2mb 51f 46f
4:12 6 8 mph 1005.1mb 51f 45f
4:06 5 8 mph 1005.1mb 51f 46f
4:00 6 9 mph 1005mb 51f 46f
3:54 6 9 mph 1005.1mb 51f 46f
3:48 5 7 mph 1005mb 50f 46f
3:42 5 8 mph 1005mb 51f 46f
3:36 7 9 mph 1005.1mb 51f 46f
3:30 6 10 mph 1005mb 51f 46f
3:24 6 9 mph 1005.1mb 51f 46f
3:18 6 9 mph 1005.1mb 51f 46f
3:12 6 9 mph 1005.2mb 51f 46f
3:06 6 9 mph 1005.2mb 51f 46f
3:00 5 8 mph 1005.2mb 51f 46f
2:54 6 8 mph 1005.3mb 51f 46f
2:48 3 6 mph 1005.3mb 51f 46f
2:42 3 7 mph 1005.4mb 51f 46f
2:36 5 8 mph 1005.5mb 51f 46f
2:30 6 8 mph 1005.5mb 51f 46f
2:24 7 9 mph 1005.5mb 51f 46f
2:18 6 8 mph 1005.6mb 51f 46f
2:12 5 8 mph 1005.6mb 51f 46f
2:06 5 8 mph 1005.6mb 51f 46f
2:00 5 7 mph 1005.6mb 51f 46f
1:54 6 7 mph 1005.5mb 51f 47f
1:48 5 7 mph 1005.5mb 51f 47f
1:42 6 8 mph 1005.6mb 51f 47f
1:36 6 8 mph 1005.6mb 51f 47f
1:30 6 8 mph 1005.5mb 51f 47f
1:24 5 7 mph 1005.5mb 51f 47f
1:18 3 7 mph 1005.5mb 51f 47f
1:12 5 7 mph 1005.5mb 51f 47f
1:06 6 7 mph 1005.5mb 51f 47f
1:00 5 7 mph 1005.5mb 51f 47f
12:54 5 7 mph 1005.5mb 51f 48f
12:48 5 7 mph 1005.3mb 51f 48f
12:42 5 8 mph 1005.4mb 51f 48f
12:36 6 8 mph 1005.6mb 51f 48f
12:30 5 7 mph 1005.6mb 51f 48f
12:24 6 8 mph 1005.5mb 51f 48f
12:18 3 7 mph 1005.6mb 51f 48f
12:12 5 7 mph 1005.6mb 51f 48f
12:06 5 6 mph 1005.6mb 51f 49f
12:00 5 6 mph 1005.5mb 51f 49f
Fr 10/24 11:54 6 7 mph 1005.6mb 51f 49f
11:48 6 9 mph 1005.6mb 51f 49f
11:42 6 9 mph 1005.6mb 51f 49f
11:36 6 7 mph 1005.6mb 51f 49f
11:30 5 7 mph 1005.7mb 51f 49f
11:24 5 8 mph 1005.7mb 51f 49f
11:18 5 8 mph 1005.7mb - 49f
11:12 5 8 mph 1005.7mb - 49f
11:06 5 7 mph 1005.6mb - 49f
11:00 3 6 mph 1005.6mb 51f 49f
10:54 3 6 mph 1005.7mb 51f 49f
10:48 3 7 mph 1005.8mb 51f 49f
10:42 5 6 mph 1005.7mb 51f 49f
10:36 6 8 mph 1005.8mb 51f 50f
10:30 5 7 mph 1005.8mb 51f 50f
10:24 6 8 mph 1005.8mb 51f 50f
10:18 5 6 mph 1005.7mb 51f 50f
10:12 3 5 mph 1005.7mb 51f 50f
10:06 3 6 mph 1005.6mb 51f 50f
10:00 3 5 mph 1005.5mb 51f 50f
9:54 2 5 mph 1005.5mb 51f 50f
9:48 3 6 mph 1005.5mb 51f 50f
9:42 3 6 mph 1005.5mb 51f 50f
9:36 2 5 mph 1005.5mb 51f 50f
9:30 2 5 mph 1005.5mb 51f 50f
9:24 3 5 mph 1005.5mb 51f 50f
9:18 3 5 mph 1005.5mb 51f 50f
9:12 5 6 mph 1005.5mb 51f 50f
9:06 5 6 mph 1005.5mb 51f 50f
9:00 5 6 mph 1005.4mb 51f 50f
8:54 5 6 mph 1005.4mb 51f 50f
8:48 5 6 mph 1005.5mb 51f 50f
8:42 5 7 mph 1005.4mb 51f 50f
8:36 5 8 mph 1005.3mb 51f 51f
8:30 3 7 mph 1005.2mb 51f 51f
8:24 6 8 mph 1005.2mb 51f 51f
8:18 6 9 mph 1005.1mb 51f 51f
8:12 7 8 mph 1005.1mb 51f 51f
8:06 7 8 mph 1005mb 51f 51f
8:00 7 9 mph 1005mb 51f 51f
7:54 5 6 mph 1005mb 51f 51f
7:48 6 8 mph 1005mb 51f 51f
7:42 6 8 mph 1004.9mb 51f 51f
7:36 7 8 mph 1004.9mb 51f 51f
7:30 6
mph
1004.9mb 51f 51f
7:24 5 6 mph 1004.9mb 51f 51f
7:18 6 7 mph 1004.9mb 51f 51f
7:12 5 8 mph 1004.9mb 51f 51f
7:06 6 7 mph 1004.9mb 51f 51f
7:00 6 7 mph 1005mb 51f 51f
6:54 6 8 mph 1005mb 51f 51f
6:48 2 3 mph 1004.9mb 51f 50f
6:42 2
mph
1004.8mb 51f 50f
6:36 2 3 mph 1004.7mb 51f 50f
6:30 2 3 mph 1004.6mb 51f 51f
6:24 2 3 mph 1004.6mb 51f 51f
6:18 3 5 mph 1004.6mb 51f 51f
6:12 3
mph
1004.6mb 51f 52f
6:06 3 5 mph 1004.4mb 51f 52f
6:00 5 6 mph 1004.3mb 51f 52f
5:54 5 6 mph 1004.2mb 51f 52f
5:48 3 5 mph 1004.2mb 51f 52f
5:42 5 6 mph 1004.2mb 51f 52f
5:36 5 6 mph 1004.1mb 51f 52f
5:30 3 6 mph 1004.1mb 51f 52f
5:24 6 8 mph 1004mb 51f 53f
5:18 6 8 mph 1003.9mb 51f 53f
5:12 6 8 mph 1003.8mb 51f 53f
5:06 6 7 mph 1003.7mb 51f 53f
5:00 5 6 mph 1003.7mb 51f 53f
4:54 5 7 mph 1003.6mb 51f 53f
4:48 5 7 mph 1003.6mb 51f 53f
4:42 6 9 mph 1003.5mb 51f 53f
4:36 6 9 mph 1003.5mb 51f 53f
4:30 7 9 mph 1003.4mb 51f 53f
4:24 5 6 mph 1003.4mb 51f 54f
4:18 6 8 mph 1003.3mb 51f 54f
4:12 6 10 mph 1003.3mb 51f 54f
4:06 8 10 mph 1003.3mb 51f 54f
4:00 6 10 mph 1003.4mb 51f 54f
3:54 7 9 mph 1003.5mb 51f 53f
3:48 7 11 mph 1003.5mb 51f 53f
3:42 9 13 mph 1003.5mb 51f 53f
3:36 8 13 mph 1003.5mb 51f 54f
3:30 11 15 mph 1003.5mb 51f 53f
3:24 9 14 mph 1003.5mb 51f 53f
3:18 8 9 mph 1003.5mb 51f 53f
3:12 8 9 mph 1003.5mb 51f 53f
3:06 6 9 mph 1003.5mb 51f 53f
3:00 10 13 mph 1003.5mb 51f 53f
2:54 8 9 mph 1003.4mb 51f 53f
2:48 7 9 mph 1003.4mb 51f 53f
2:42 7 13 mph 1003.5mb 51f 53f
2:36 9 13 mph 1003.5mb 51f 52f
2:30 6 11 mph 1003.5mb 51f 52f
2:24 7 9 mph 1003.5mb 51f 52f
2:18 8 11 mph 1003.5mb 51f 52f
2:12 8 10 mph 1003.5mb 51f 52f
2:06 9 11 mph 1003.6mb 51f 51f
2:00 7 9 mph 1003.6mb 51f 51f
1:54 9 13 mph 1003.7mb 51f 51f
1:48 13 14 mph 1003.8mb 51f 51f
1:42 11 14 mph 1003.8mb 51f 51f
1:36 8 15 mph 1003.8mb 51f 51f
1:30 11 16 mph 1003.8mb 51f 51f
1:24 9 15 mph 1003.8mb 51f 51f
1:18 13 17 mph 1003.8mb 51f 51f
1:12 11 14 mph 1003.9mb 51f 51f
1:06 8 13 mph 1003.9mb 51f 50f
1:00 10 13 mph 1004mb 51f 50f
12:54 11 15 mph 1004.1mb 51f 50f
12:48 9 14 mph 1004.2mb 51f 50f
12:42 14 17 mph 1004.3mb 51f 50f
12:36 13 16 mph 1004.3mb 51f 50f
12:30 13 15 mph 1004.5mb 51f 50f
12:24 10 15 mph 1004.4mb 51f 50f
12:18 11 15 mph 1004.5mb 51f 50f
12:12 13 15 mph 1004.4mb 51f 50f
12:06 11 16 mph 1004.5mb 51f 50f
12:00 11 17 mph 1004.5mb 51f 51f
11:54 13 18 mph 1004.7mb 51f 50f
11:48 14 17 mph 1004.7mb 51f 50f
11:42 13 17 mph 1004.7mb 51f 50f
11:36 13 15 mph 1004.8mb 51f 50f
11:30 13 18 mph 1004.8mb 51f 50f
11:24 14 16 mph 1004.7mb 51f 50f
11:18 13 18 mph 1004.7mb 51f 50f
11:12 11 18 mph 1004.7mb 51f 50f
11:06 14 18 mph 1004.6mb 51f 50f
11:00 11 15 mph 1004.5mb 51f 49f
10:54 11 15 mph 1004.7mb 51f 49f
10:48 9 14 mph 1004.8mb 51f 49f
10:42 8 15 mph 1004.8mb 51f 49f
10:36 11 17 mph 1004.8mb 51f 49f
10:30 11 18 mph 1004.8mb 51f 49f
10:24 13 16 mph 1004.9mb 51f 49f
10:18 13 17 mph 1004.8mb 51f 49f
10:12 13 15 mph 1004.8mb 51f 49f
10:06 10 15 mph 1004.8mb 51f 49f
10:00 14 18 mph 1004.7mb 51f 49f
9:54 10 14 mph 1004.8mb 51f 49f
9:48 13 17 mph 1004.8mb 51f 48f
9:42 11 18 mph 1004.8mb 51f 48f
9:36 13 18 mph 1004.7mb 51f 48f
9:30 14 18 mph 1004.7mb 51f 48f
9:24 15 21 mph 1004.7mb 51f 48f
9:18 13 21 mph 1004.7mb 51f 48f
9:12 13 17 mph 1004.7mb 51f 48f
9:06 11 16 mph 1004.7mb 51f 48f
9:00 15 17 mph 1004.7mb 51f 48f
8:54 13 17 mph 1004.7mb 51f 48f
8:48 13 16 mph 1004.6mb 51f 48f
8:42 13 20 mph 1004.6mb 51f 48f
8:36 14 15 mph 1004.4mb 51f 48f
8:30 13 18 mph 1004.4mb 51f 48f
8:24 11 22 mph 1004.4mb 51f 48f
8:18 11 16 mph 1004.4mb 50f 48f
8:12 13 20 mph 1004.3mb 50f 48f
8:06 13 21 mph 1004.4mb 50f 48f
8:00 11 20 mph 1004.3mb 50f 48f
7:54 14 18 mph 1004.2mb 50f 48f
7:48 11 18 mph 1004.2mb 50f 48f
7:42 15 17 mph 1004mb 49f 48f
7:36 13 18 mph 1004mb 49f 48f
7:30 11 17 mph 1003.9mb 49f 48f
7:24 15 21 mph 1003.8mb 49f 48f
7:18 14 21 mph 1003.8mb 49f 48f
7:12 15 21 mph 1003.9mb 49f 48f
7:06 15 20 mph 1003.9mb 49f 48f
7:00 14 20 mph 1003.8mb 49f 48f
6:54 15 18 mph 1003.8mb 49f 47f
6:48 13 17 mph 1003.9mb 49f 48f
6:42 14 20 mph 1003.8mb 49f 48f
6:36 14 18 mph 1003.8mb 49f 48f
6:30 14 17 mph 1003.8mb 49f 48f
6:24 14 22 mph 1003.8mb 49f 48f
6:18 14 20 mph 1003.7mb 49f 48f
6:12 11 20 mph 1003.7mb 49f 48f
6:06 13 18 mph 1003.6mb 49f 48f
6:00 14 22 mph 1003.7mb 50f 48f
5:54 15 20 mph 1003.8mb 50f 48f
5:48 15 21 mph 1003.8mb 50f 48f
5:42 14 20 mph 1003.8mb 50f 48f
5:36 13 18 mph 1003.8mb 50f 48f
5:30 16 20 mph 1003.7mb 50f 48f
5:24 13 18 mph 1003.8mb 50f 48f
5:18 14 23 mph 1003.7mb 50f 48f
5:12 14 18 mph 1003.7mb 50f 48f
5:06 14 21 mph 1003.7mb 50f 48f
5:00 17 22 mph 1003.5mb 50f 48f
4:54 17 22 mph 1003.5mb 50f 48f
4:48 14 18 mph 1003.4mb 50f 48f
4:42 16 24 mph 1003.4mb 50f 48f
4:36 17 23 mph 1003.4mb 50f 48f
4:30 16 22 mph 1003.4mb 50f 48f
4:24 14 21 mph 1003.4mb 50f 48f
4:18 15 22 mph 1003.4mb 50f 48f
4:12 16 22 mph 1003.3mb 50f 49f
4:06 16 23 mph 1003.2mb 50f 48f
4:00 20 24 mph 1003.2mb 50f 49f
3:54 16 22 mph 1003.2mb 50f 48f
3:48 17 22 mph 1003.2mb 50f 49f
3:42 17 22 mph 1003.2mb 50f 49f
3:36 16 22 mph 1003.3mb 50f 48f
3:30 15 24 mph 1003.3mb 50f 49f
3:24 17 22 mph 1003.2mb 50f 49f
3:18 17 23 mph 1003.2mb 50f 48f
3:12 17 23 mph 1003.2mb 50f 48f
3:06 17 24 mph 1003.1mb 50f 49f
3:00 18 24 mph 1003.2mb 50f 48f
2:54 15 22 mph 1003.3mb 50f 48f
2:48 16 25 mph 1003.3mb 50f 48f
2:42 16 21 mph 1003.5mb 50f 48f
2:36 20 24 mph 1003.6mb 50f 48f
2:30 15 21 mph 1003.6mb 50f 48f
2:24 18 22 mph 1003.4mb 50f 48f
2:18 17 22 mph 1003.5mb 51f 48f
2:12 20 23 mph 1003.5mb 51f 49f
2:06 15 20 mph 1003.6mb 51f 49f
2:00 18 23 mph 1003.7mb 51f 49f
1:54 18 22 mph 1003.5mb 51f 49f
1:48 18 24 mph 1003.4mb 51f 48f
1:42 21 25 mph 1003.5mb 51f 49f
1:36 18 23 mph 1003.7mb 51f 48f
1:30 15 21 mph 1003.9mb 51f 48f
1:24 17 22 mph 1003.9mb 51f 48f
1:18 18 22 mph 1003.9mb 51f 48f
1:12 17 23 mph 1004.1mb 51f 48f
1:06 20 23 mph 1004.1mb 51f 48f
1:00 17 22 mph 1004.3mb 51f 49f
12:54 18 24 mph 1004.3mb 51f 49f
12:48 16 23 mph 1004.1mb 51f 49f
12:42 17 24 mph 1004mb 51f 49f
12:36 17 23 mph 1003.9mb 51f 49f
12:30 16 22 mph 1004mb 51f 49f
12:24 17 23 mph 1004mb 51f 49f
12:18 17 22 mph 1004mb 51f 49f
12:12 16 21 mph 1004.1mb 51f 49f
12:06 17 22 mph 1004.2mb 51f 49f
12:00 16 22 mph 1004.2mb 51f 49f
Do 10/23 11:54 16 23 mph 1004.2mb 51f 49f
11:48 17 22 mph 1004.2mb 51f 49f
11:42 16 22 mph 1004.1mb 51f 49f
11:36 18 23 mph 1004.3mb 51f 49f
11:30 17 24 mph 1004.4mb 51f 49f
11:24 17 22 mph 1004.4mb 51f 49f
11:18 16 23 mph 1004.5mb 51f 49f
11:12 15 22 mph 1004.6mb 51f 49f
11:06 17 23 mph 1004.5mb 51f 49f
11:00 18 23 mph 1004.5mb 51f 49f
10:54 18 24 mph 1004.5mb 51f 49f
10:48 18 26 mph 1004.5mb 51f 49f
10:42 17 25 mph 1004.6mb 51f 49f
10:36 18 24 mph 1004.6mb 51f 49f
10:30 18 25 mph 1004.6mb 51f 49f
10:24 20 28 mph 1004.7mb 51f 49f
10:18 21 28 mph 1004.7mb 51f 49f
10:12 24 29 mph 1004.6mb 51f 49f
10:06 23 31 mph 1004.6mb 51f 49f
10:00 18 25 mph 1004.7mb 51f 49f
9:54 20 25 mph 1004.9mb 51f 50f
9:48 17 22 mph 1004.8mb 51f 50f
9:42 17 22 mph 1004.8mb 51f 50f
9:36 17 23 mph 1004.9mb 51f 50f
9:30 18 22 mph 1004.8mb 51f 50f
9:24 17 29 mph 1005mb 51f 50f
9:18 15 23 mph 1004.9mb 51f 50f
9:12 22 26 mph 1005mb 51f 50f
9:06 18 24 mph 1005.1mb 51f 50f
9:00 20 26 mph 1005.1mb 51f 50f
8:54 18 28 mph 1005.1mb 51f 50f
8:48 17 24 mph 1005.2mb 51f 50f
8:42 20 26 mph 1005.2mb 51f 50f
8:36 20 26 mph 1005mb 51f 50f
8:30 17 22 mph 1005.1mb 51f 50f
8:24 20 24 mph 1005.1mb 51f 50f
8:18 18 22 mph 1005mb 51f 50f
8:12 18 25 mph 1005mb 51f 50f
8:06 18 23 mph 1005mb 51f 50f
8:00 18 23 mph 1005mb 51f 50f
7:54 16 22 mph 1005mb 50f 50f
7:48 17 21 mph 1005mb 50f 50f
7:42 18 24 mph 1005mb 50f 50f
7:36 20 26 mph 1005mb 50f 50f
7:30 21 25 mph 1004.9mb 50f 50f
7:24 18 24 mph 1004.9mb 50f 50f
7:18 21 25 mph 1004.8mb 50f 51f
7:12 18 25 mph 1004.7mb 50f 51f
7:06 16 23 mph 1004.8mb 50f 51f
7:00 18 23 mph 1004.8mb 50f 51f
6:54 16 23 mph 1004.7mb 50f 51f
6:48 17 24 mph 1004.8mb 50f 51f
6:42 20 24 mph 1004.9mb 50f 51f
6:36 18 22 mph 1004.9mb 50f 51f
6:30 17 23 mph 1005mb 50f 51f
6:24 16 28 mph 1005mb 50f 51f
6:18 18 25 mph 1004.9mb 50f 51f
6:12 15 23 mph 1004.9mb 50f 51f
6:06 18 24 mph 1004.9mb 50f 51f
6:00 18 24 mph 1004.8mb 50f 51f
5:54 18 25 mph 1004.8mb 50f 51f
5:48 17 25 mph 1004.7mb 50f 51f
5:42 20 24 mph 1004.6mb 50f 51f
5:36 17 24 mph 1004.7mb 50f 51f
5:30 16 28 mph 1004.7mb 50f 51f
5:24 20 28 mph 1004.7mb 50f 51f
5:18 18 26 mph 1004.7mb 50f 51f
5:12 18 23 mph 1004.8mb 50f 51f
5:06 18 24 mph 1004.8mb 50f 51f
5:00 20 25 mph 1004.9mb 50f 51f
4:54 18 23 mph 1004.8mb 50f 51f
4:48 18 23 mph 1004.7mb 50f 51f
4:42 20 25 mph 1004.6mb 50f 51f
4:36 16 23 mph 1004.6mb 50f 51f
4:30 16 23 mph 1004.6mb 50f 51f
4:24 18 24 mph 1004.5mb 50f 52f
4:18 20 25 mph 1004.5mb 50f 52f
4:12 18 25 mph 1004.4mb 50f 52f
4:06 21 30 mph 1004.4mb 50f 52f
4:00 17 25 mph 1004.4mb 50f 52f
3:54 16 26 mph 1004.4mb 50f 52f
3:48 18 23 mph 1004.5mb 50f 52f
3:42 21 25 mph 1004.6mb 50f 52f
3:36 15 20 mph 1004.8mb 50f 52f
3:30 17 23 mph 1005mb 50f 52f
3:24 20 26 mph 1004.8mb 50f 52f
3:18 16 22 mph 1004.7mb 50f 52f
3:12 17 22 mph 1004.7mb 50f 52f
3:06 17 25 mph 1004.7mb 50f 52f
3:00 18 23 mph 1004.6mb 50f 52f
2:54 16 25 mph 1004.6mb 50f 52f
2:48 18 25 mph 1004.5mb 50f 52f
2:42 21 26 mph 1004.6mb 50f 52f
2:36 22 28 mph 1004.7mb 50f 52f
2:30 18 24 mph 1004.7mb 50f 52f
2:24 22 30 mph 1004.6mb 50f 52f
2:18 20 26 mph 1004.6mb 50f 52f
2:12 21 28 mph 1004.7mb 50f 52f
2:06 18 24 mph 1004.7mb 50f 52f
2:00 20 28 mph 1004.9mb 50f 52f
1:54 17 23 mph 1005mb 50f 51f
1:48 20 25 mph 1004.9mb 50f 51f
1:42 16 23 mph 1005mb 51f 51f
1:36 18 24 mph 1005mb 51f 51f
1:30 18 26 mph 1005mb 51f 51f
1:24 21 24 mph 1005mb 51f 51f
1:18 18 29 mph 1005mb 51f 51f
1:12 20 28 mph 1005.1mb 51f 51f
1:06 22 31 mph 1005.2mb 51f 51f
1:00 21 29 mph 1005.1mb 51f 51f
12:54 23 30 mph 1005.1mb 51f 51f
12:48 26 31 mph 1004.9mb 51f 51f
12:42 22 34 mph 1005mb 51f 51f
12:36 23 34 mph 1004.8mb 51f 51f
12:30 22 30 mph 1005mb 51f 51f
12:24 22 29 mph 1005.1mb 51f 51f
12:18 22 26 mph 1005.3mb 51f 51f
12:12 22 29 mph 1005.3mb 51f 51f
12:06 22 33 mph 1005.4mb 51f 51f
12:00 23 31 mph 1005.2mb 51f 51f
11:54 20 28 mph 1005.6mb 51f 51f
11:48 22 29 mph 1005.7mb 51f 51f
11:42 23 31 mph 1005.6mb 51f 51f
11:36 21 31 mph 1005.8mb 51f 51f
11:30 24 32 mph 1005.7mb 51f 51f
11:24 23 29 mph 1005.8mb 51f 51f
11:18 23 29 mph 1005.6mb 51f 51f
11:12 20 29 mph 1005.6mb 51f 51f
11:06 25 33 mph 1005.7mb 51f 51f
11:00 21 30 mph 1005.7mb 51f 51f
10:54 23 31 mph 1005.5mb 51f 51f
10:48 24 34 mph 1005.2mb 51f 51f
10:42 26 34 mph 1005.4mb 51f 51f
10:36 23 33 mph 1005.4mb 51f 51f
10:30 25 38 mph 1005.4mb 51f 51f
10:24 26 37 mph 1005.3mb 51f 51f
10:18 28 34 mph 1004.8mb 51f 51f
10:12 26 33 mph 1005.4mb 51f 51f
10:06 25 34 mph 1005.1mb 51f 51f
10:00 23 33 mph 1005.1mb 51f 51f
9:54 25 32 mph 1005.3mb 51f 50f
9:48 21 33 mph 1005.3mb 51f 50f
9:42 21 30 mph 1005.5mb 51f 50f
9:36 25 31 mph 1005.2mb 51f 50f
9:30 28 34 mph 1004.7mb 51f 50f
9:24 23 31 mph 1004.6mb 51f 50f
9:18 25 36 mph 1004.7mb 51f 50f
9:12 24 36 mph 1005mb 51f 50f
9:06 22 33 mph 1005.1mb 51f 49f
9:00 25 38 mph 1005.1mb 51f 50f
8:54 24 34 mph 1005.1mb 51f 50f
8:48 24 33 mph 1005.2mb 51f 50f
8:42 24 33 mph 1005.2mb 51f 50f
8:36 21 34 mph 1005.3mb 51f 50f
8:30 24 36 mph 1005.5mb 51f 50f
8:24 25 33 mph 1005.5mb 51f 50f
8:18 23 29 mph 1005.6mb 51f 49f
8:12 22 33 mph 1005.6mb 51f 49f
8:06 28 34 mph 1005.3mb 51f 49f
8:00 25 39 mph 1005.4mb 51f 49f
7:54 25 34 mph 1005.2mb 51f 49f
7:48 25 34 mph 1005.2mb 50f 49f
7:42 25 33 mph 1005.1mb 50f 49f
7:36 26 32 mph 1005.1mb 50f 49f
7:30 22 33 mph 1005.4mb 50f 49f
7:24 26 36 mph 1005.5mb 50f 49f
7:18 24 31 mph 1005.4mb 50f 49f
7:12 22 32 mph 1005.8mb 49f 49f
7:06 23 29 mph 1006.1mb 49f 49f
7:00 25 34 mph 1006.3mb 49f 49f
6:54 22 31 mph 1006.4mb 49f 49f
6:48 23 30 mph 1006.5mb 49f 49f
6:42 21 29 mph 1006.5mb 49f 49f
6:36 18 24 mph 1006.6mb 49f 49f
6:30 22 36 mph 1006.6mb 49f 49f
6:24 28 38 mph 1006.4mb 49f 49f
6:18 23 31 mph 1006.8mb 49f 49f
6:12 23 29 mph 1006.9mb 49f 49f
6:06 18 36 mph 1007mb 49f 49f
6:00 24 31 mph 1006.8mb 49f 49f
5:54 26 33 mph 1006.9mb 49f 49f
5:48 24 31 mph 1007mb 49f 49f
5:42 23 28 mph 1007.4mb 49f 49f
5:36 21 29 mph 1007.5mb 49f 49f
5:30 18 29 mph 1007.7mb 49f 49f
5:24 21 26 mph 1007.5mb 49f 49f
5:18 22 29 mph 1007.6mb 49f 48f
5:12 25 36 mph 1007.4mb 49f 48f
5:06 22 29 mph 1007.4mb 49f 48f
5:00 22 30 mph 1007.6mb 49f 48f
4:54 22 30 mph 1007.5mb 49f 48f
4:48 21 29 mph 1007.7mb 49f 48f
4:42 20 33 mph 1007.8mb 49f 48f
4:36 22 31 mph 1007.8mb 49f 48f
4:30 21 29 mph 1008mb 49f 48f
4:24 23 29 mph 1008.1mb 49f 48f
4:18 21 26 mph 1008.1mb 50f 48f
4:12 21 30 mph 1008.4mb 50f 48f
4:06 20 28 mph 1008.4mb 49f 48f
4:00 23 33 mph 1008.3mb 49f 48f
3:54 22 31 mph 1008.5mb 49f 48f
3:48 23 29 mph 1008.6mb 49f 48f
3:42 22 26 mph 1008.7mb 49f 48f
3:36 17 24 mph 1008.8mb 49f 48f
3:30 20 29 mph 1009mb 49f 48f
3:24 20 28 mph 1008.7mb 49f 48f
3:18 25 30 mph 1008.9mb 49f 48f
3:12 20 26 mph 1009.1mb 49f 48f
3:06 18 28 mph 1009.2mb 49f 48f
3:00 21 30 mph 1009.3mb 49f 48f
2:54 21 28 mph 1009.3mb 49f 48f
2:48 20 26 mph 1009.4mb 49f 48f
2:42 18 26 mph 1009.6mb 49f 48f
2:36 20 26 mph 1009.6mb 49f 47f
2:30 21 28 mph 1009.9mb 50f 47f
2:24 21 26 mph 1009.9mb 50f 47f
2:18 21 28 mph 1010.2mb 50f 48f
2:12 22 32 mph 1010.1mb 50f 48f
2:06 21 29 mph 1010.3mb 50f 48f
2:00 22 26 mph 1010.5mb 50f 48f
1:54 18 29 mph 1010.7mb 50f 47f
1:48 22 31 mph 1010.7mb 50f 48f
1:42 25 31 mph 1010.3mb 50f 48f
1:36 23 30 mph 1010.4mb 50f 48f
1:30 24 32 mph 1010.5mb 50f 48f
1:24 24 30 mph 1010.6mb 50f 48f
1:18 21 26 mph 1010.6mb 50f 48f
1:12 24 30 mph 1010.8mb 50f 48f
1:06 22 32 mph 1010.6mb 50f 48f
1:00 22 30 mph 1011mb 50f 48f
12:54 21 29 mph 1011.3mb 50f 48f
12:48 18 29 mph 1011.3mb 50f 48f
12:42 22 29 mph 1011.4mb 50f 48f
12:36 20 26 mph 1011.7mb 50f 48f
12:30 23 29 mph 1011.8mb 50f 48f
12:24 20 28 mph 1011.8mb 50f 48f
12:18 20 29 mph 1012mb 50f 48f
12:12 18 24 mph 1012.3mb 51f 48f
12:06 22 26 mph 1012.3mb 51f 48f
12:00 18 26 mph 1012.5mb 50f 48f
Mi 10/22 11:54 18 25 mph 1012.7mb 50f 48f
11:48 21 25 mph 1012.6mb 51f 48f
11:42 21 28 mph 1012.6mb 51f 48f
11:36 18 30 mph 1012.6mb 51f 48f
11:30 17 29 mph 1012.8mb 51f 48f
11:24 17 31 mph 1013.1mb 51f 48f
11:18 25 33 mph 1013.1mb 51f 48f
11:12 21 28 mph 1013.3mb 51f 48f
11:06 22 29 mph 1013.3mb 51f 48f
11:00 20 29 mph 1013.3mb 51f 48f
10:54 17 29 mph 1013.3mb 51f 48f
10:48 18 24 mph 1013.4mb 51f 48f
10:42 18 26 mph 1013.3mb 51f 48f
10:36 20 28 mph 1013.3mb 51f 48f
10:30 20 25 mph 1013.4mb 51f 48f
10:24 21 25 mph 1013.4mb 51f 49f
10:18 20 26 mph 1013.4mb 51f 48f
10:12 16 28 mph 1013.4mb 50f 48f
10:06 21 28 mph 1013.5mb 50f 48f
10:00 20 29 mph 1013.8mb 50f 48f
9:54 20 26 mph 1013.8mb 50f 48f
9:48 18 26 mph 1014.2mb 50f 49f
9:42 20 29 mph 1014.1mb 50f 49f
9:36 23 28 mph 1013.9mb 50f 49f
9:30 17 24 mph 1014mb 50f 49f
9:24 21 33 mph 1014mb 50f 49f
9:18 21 28 mph 1013.9mb 50f 49f
9:12 21 30 mph 1013.9mb 50f 49f
9:06 17 24 mph 1014mb 50f 49f
9:00 20 29 mph 1014.1mb 50f 49f
8:54 22 29 mph 1014.2mb 50f 49f
8:48 21 29 mph 1014.2mb 50f 49f
8:42 22 32 mph 1014.2mb 50f 49f
8:36 22 34 mph 1014.1mb 50f 49f
8:30 23 33 mph 1014.4mb 50f 49f
8:24 21 31 mph 1014.6mb 50f 49f
8:18 20 30 mph 1014.6mb 50f 49f
8:12 18 31 mph 1014.5mb 50f 49f
8:06 22 32 mph 1014.4mb 50f 49f
8:00 18 31 mph 1014.5mb 50f 49f
7:54 18 29 mph 1014.4mb 50f 49f
7:48 21 28 mph 1014.3mb 50f 49f
7:42 20 30 mph 1014.3mb 50f 49f
7:36 20 30 mph 1014.2mb 50f 49f
7:30 23 30 mph 1014.2mb 50f 49f
7:24 22 28 mph 1014.4mb 50f 49f
7:18 18 26 mph 1014.5mb 50f 49f
7:12 18 31 mph 1014.5mb 50f 49f
7:06 23 29 mph 1014.6mb 50f 49f
7:00 22 31 mph 1014.8mb 50f 49f
6:54 20 29 mph 1015.1mb 50f 49f
6:48 21 28 mph 1015.2mb 50f 49f
6:42 17 28 mph 1015.2mb 50f 49f
6:36 17 26 mph 1015.4mb 50f 49f
6:30 20 26 mph 1015.4mb 50f 49f
6:24 22 29 mph 1015.3mb 50f 49f
6:18 18 31 mph 1015.4mb 50f 49f
6:12 17 26 mph 1015.5mb 50f 49f
6:06 20 24 mph 1015.3mb 50f 49f
6:00 23 29 mph 1015.2mb 50f 49f
5:54 18 25 mph 1015.1mb 50f 48f
5:48 20 29 mph 1015.1mb 50f 48f
5:42 20 29 mph 1015.1mb 50f 48f
5:36 20 25 mph 1015.1mb 50f 48f
5:30 21 33 mph 1015.1mb 50f 48f
5:24 21 31 mph 1015.1mb 50f 48f
5:18 21 28 mph 1015.3mb 50f 48f
5:12 20 26 mph 1015.3mb 50f 48f
5:06 20 29 mph 1015.3mb 50f 48f
5:00 20 29 mph 1015.3mb 50f 48f
4:54 21 29 mph 1015.1mb 50f 48f
4:48 20 25 mph 1015.3mb 50f 48f
4:42 17 28 mph 1015.2mb 50f 48f
4:36 20 25 mph 1015.1mb 50f 48f
4:30 21 28 mph 1015.2mb 50f 48f
4:24 21 28 mph 1015.1mb 50f 48f
4:18 18 24 mph 1015.2mb 50f 48f
4:12 20 28 mph 1015.2mb 50f 49f
4:06 21 28 mph 1015.2mb 50f 48f
4:00 22 28 mph 1015.2mb 50f 48f
3:54 20 31 mph 1015.3mb 50f 48f
3:48 21 31 mph 1015mb 50f 48f
3:42 23 31 mph 1014.9mb 50f 48f
3:36 20 31 mph 1015mb 50f 48f
3:30 23 30 mph 1014.9mb 50f 48f
3:24 24 28 mph 1015mb 50f 49f
3:18 22 29 mph 1015.1mb 50f 49f
3:12 22 29 mph 1015.2mb 50f 49f
3:06 21 29 mph 1015.3mb 50f 49f
3:00 22 29 mph 1015.3mb 50f 49f
2:54 21 29 mph 1015.4mb 50f 49f
2:48 18 24 mph 1015.4mb 50f 49f
2:42 18 31 mph 1015.4mb 50f 49f
2:36 20 28 mph 1015.3mb 50f 49f
2:30 20 28 mph 1015.2mb 50f 49f
2:24 21 29 mph 1015.3mb 50f 49f
2:18 20 25 mph 1015.4mb 50f 49f
2:12 20 25 mph 1015.4mb 50f 50f
2:06 20 26 mph 1015.4mb 50f 50f
2:00 21 24 mph 1015.3mb 50f 50f
1:54 18 26 mph 1015.4mb 50f 50f
1:48 20 23 mph 1015.5mb 50f 50f
1:42 16 25 mph 1015.6mb 50f 50f
1:36 16 21 mph 1015.5mb 50f 50f
1:30 16 22 mph 1015.6mb 50f 50f
1:24 20 25 mph 1015.7mb 50f 50f
1:18 21 25 mph 1015.8mb 50f 50f
1:12 17 24 mph 1015.8mb 50f 50f
1:06 17 22 mph 1015.8mb 50f 50f
1:00 16 23 mph 1016mb 50f 50f
12:54 17 23 mph 1016.1mb 50f 50f
12:48 18 22 mph 1016mb 50f 51f
12:42 20 26 mph 1016.1mb 50f 51f
12:36 18 28 mph 1016.2mb 50f 50f
12:30 16 29 mph 1016.1mb 50f 50f
12:24 26 36 mph 1015.7mb 50f 50f
12:18 18 25 mph 1016.1mb 50f 50f
12:12 21 25 mph 1016.1mb 50f 49f
12:06 22 26 mph 1016.3mb 50f 49f
12:00 20 26 mph 1016.4mb 50f 49f
11:54 18 29 mph 1016.8mb 50f 49f
11:48 21 29 mph 1016.7mb 50f 49f
11:42 21 29 mph 1016.8mb 50f 49f
11:36 20 29 mph 1017.1mb 50f 49f
11:30 22 26 mph 1017.1mb 50f 49f
11:24 20 25 mph 1017.2mb 50f 49f
11:18 16 23 mph 1017.3mb 50f 49f
11:12 17 22 mph 1017.4mb 50f 49f
11:06 18 22 mph 1017.4mb 50f 49f
11:00 20 22 mph 1017.5mb 50f 49f
10:54 16 23 mph 1017.6mb 50f 49f
10:48 18 22 mph 1017.6mb 50f 49f
10:42 17 23 mph 1017.8mb 50f 49f
10:36 17 24 mph 1017.9mb 50f 49f
10:30 16 22 mph 1017.9mb 50f 49f
10:24 16 23 mph 1017.8mb 50f 49f
10:18 16 25 mph 1017.8mb 50f 49f
10:12 16 21 mph 1017.9mb 50f 49f
10:06 16 21 mph 1017.9mb 50f 49f
10:00 14 23 mph 1018.1mb 50f 49f
9:54 16 22 mph 1018mb 50f 49f
9:48 20 24 mph 1018mb 50f 49f
9:42 16 21 mph 1018.1mb 50f 49f
9:36 20 23 mph 1018mb 50f 49f
9:30 15 22 mph 1018.2mb 50f 49f
9:24 16 22 mph 1018.2mb 50f 49f
9:18 14 21 mph 1018.2mb 50f 49f
9:12 14 24 mph 1018.2mb 50f 49f
9:06 16 22 mph 1018.2mb 50f 49f
9:00 14 18 mph 1018.2mb 50f 49f
8:54 14 22 mph 1017.9mb 50f 49f
8:48 16 21 mph 1017.9mb 50f 49f
8:42 15 22 mph 1017.9mb 50f 49f
8:36 15 21 mph 1017.8mb 50f 49f
8:30 17 23 mph 1017.8mb 50f 49f
8:24 17 22 mph 1017.8mb 50f 49f
8:18 17 21 mph 1017.7mb 50f 49f
8:12 16 23 mph 1017.6mb 50f 49f
8:06 16 25 mph 1017.6mb 50f 49f
8:00 14 21 mph 1017.7mb 50f 50f
7:54 15 21 mph 1017.8mb 50f 50f
7:48 15 22 mph 1017.9mb 50f 50f
7:42 13 17 mph 1017.9mb 50f 50f
7:36 15 22 mph 1017.8mb 50f 50f
7:30 16 23 mph 1017.7mb 50f 50f
7:24 17 22 mph 1017.8mb 50f 51f
7:18 16 22 mph 1017.8mb 50f 51f
7:12 14 22 mph 1017.8mb 50f 51f
7:06 16 23 mph 1017.6mb 50f 51f
7:00 15 21 mph 1017.6mb 50f 51f
6:54 14 21 mph 1017.6mb 50f 51f
6:48 14 21 mph 1017.6mb 50f 51f
6:42 16 21 mph 1017.5mb 50f 51f
6:36 13 18 mph 1017.5mb 50f 51f
6:30 17 22 mph 1017.4mb 50f 51f
6:24 14 20 mph 1017.4mb 50f 50f
6:18 11 20 mph 1017.4mb 50f 51f
6:12 16 21 mph 1017.4mb 50f 50f
6:06 15 21 mph 1017.4mb 50f 50f
6:00 14 16 mph 1017.2mb 50f 50f
5:54 11 15 mph 1017.2mb 50f 50f
5:48 13 20 mph 1017.1mb 50f 50f
5:42 11 17 mph 1017.1mb 50f 50f
5:36 13 17 mph 1017.1mb 50f 51f
5:30 11 15 mph 1017.1mb 50f 51f
5:24 11 16 mph 1017.1mb 50f 51f
5:18 14 17 mph 1017mb 50f 51f
5:12 15 18 mph 1016.9mb 50f 51f
5:06 13 24 mph 1016.8mb 50f 52f
5:00 17 26 mph 1016.8mb 50f 52f
4:54 18 24 mph 1016.8mb 50f 53f
4:48 18 25 mph 1016.7mb 50f 52f
4:42 17 26 mph 1016.6mb 50f 53f
4:36 18 24 mph 1016.4mb 50f 53f
4:30 17 23 mph 1016.4mb 50f 53f
4:24 17 22 mph 1016.3mb 50f 52f
4:18 16 22 mph 1016.3mb 50f 52f
4:12 14 23 mph 1016.1mb 50f 52f
4:06 13 18 mph 1016.1mb 50f 51f
4:00 11 17 mph 1016.2mb 50f 50f
3:54 13 15 mph 1016.1mb 50f 50f
3:48 13 16 mph 1016.1mb 50f 50f
3:42 13 16 mph 1016mb 50f 50f
3:36 13 16 mph 1015.9mb 50f 50f
3:30 13 18 mph 1015.8mb 50f 50f
3:24 14 16 mph 1015.6mb 50f 50f
3:18 14 18 mph 1015.7mb 50f 50f
3:12 14 17 mph 1015.7mb 50f 50f
3:06 13 16 mph 1015.7mb 50f 50f
3:00 13 16 mph 1015.8mb 50f 50f
2:54 13 15 mph 1015.8mb 50f 50f
2:48 13 16 mph 1015.8mb 50f 50f
2:42 13 16 mph 1015.8mb 50f 49f
2:36 14 18 mph 1015.8mb 50f 50f
2:30 14 16 mph 1015.7mb 50f 50f
2:24 14 18 mph 1015.7mb 50f 49f
2:18 13 17 mph 1015.7mb 50f 49f
2:12 14 17 mph 1015.7mb 50f 49f
2:06 14 17 mph 1015.7mb 50f 49f
2:00 14 20 mph 1015.7mb 50f 49f
1:54 16 20 mph 1015.6mb 50f 49f
1:48 13 21 mph 1015.7mb 50f 49f
1:42 18 23 mph 1015.5mb 50f 49f
1:36 17 21 mph 1015.6mb 50f 48f
1:30 14 20 mph 1015.7mb 50f 48f
1:24 15 18 mph 1015.7mb 50f 48f
1:18 17 23 mph 1015.5mb 50f 48f
1:12 15 20 mph 1015.6mb 50f 48f
1:06 14 21 mph 1015.6mb 50f 48f
1:00 15 21 mph 1015.7mb 50f 48f
12:54 17 21 mph 1015.7mb 50f 48f
12:48 14 20 mph 1015.8mb 50f 48f
12:42 16 18 mph 1015.8mb 50f 48f
12:36 17 20 mph 1015.8mb 50f 48f
12:30 16 20 mph 1015.8mb 50f 48f
12:24 16 20 mph 1015.8mb 50f 48f
12:18 16 22 mph 1015.7mb 50f 48f
12:12 15 22 mph 1015.7mb 50f 48f
12:06 16 20 mph 1015.8mb 50f 48f
12:00 15 20 mph 1015.9mb 50f 48f
Di 10/21 11:54 15 22 mph 1015.9mb 50f 49f
11:48 18 22 mph 1015.8mb 50f 49f
11:42 16 22 mph 1015.8mb 50f 49f
11:36 16 22 mph 1015.9mb 50f 49f
11:30 15 20 mph 1015.9mb 50f 49f
11:24 16 21 mph 1015.8mb 50f 49f
11:18 18 25 mph 1015.8mb 50f 49f
11:12 14 20 mph 1015.8mb 50f 49f
11:06 15 18 mph 1015.8mb 50f 49f
11:00 13 18 mph 1015.8mb 50f 49f
10:54 16 21 mph 1015.7mb 50f 49f
10:48 15 21 mph 1015.5mb 50f 49f
10:42 17 21 mph 1015.5mb 50f 49f
10:36 16 20 mph 1015.7mb 50f 49f
10:30 16 20 mph 1015.7mb 50f 49f
10:24 15 21 mph 1015.7mb 50f 49f
10:18 17 20 mph 1015.6mb 50f 49f
10:12 15 18 mph 1015.5mb 50f 49f
10:06 15 20 mph 1015.5mb 50f 50f
10:00 14 21 mph 1015.5mb 50f 50f
9:54 15 21 mph 1015.5mb 50f 50f
9:48 14 17 mph 1015.5mb 50f 50f
9:42 15 18 mph 1015.4mb 50f 50f
9:36 15 18 mph 1015.4mb 50f 50f
9:30 14 18 mph 1015.3mb 50f 50f
9:24 14 20 mph 1015.2mb 50f 50f
9:18 16 20 mph 1015.1mb 50f 50f
9:12 15 21 mph 1015mb 50f 50f
9:06 15 21 mph 1015mb 50f 50f
9:00 17 22 mph 1014.8mb 50f 50f
8:54 13 21 mph 1014.9mb 50f 50f
8:48 17 21 mph 1014.8mb 50f 50f
8:42 15 22 mph 1014.7mb 50f 50f
8:36 13 18 mph 1014.7mb 50f 51f
8:30 14 18 mph 1014.6mb 50f 51f
8:24 16 20 mph 1014.6mb 50f 51f
8:18 14 20 mph 1014.6mb 50f 51f
8:12 14 17 mph 1014.5mb 50f 51f
8:06 15 20 mph 1014.4mb 50f 51f
8:00 11 16 mph 1014.5mb 50f 52f
7:54 13 18 mph 1014.4mb 50f 52f
7:48 13 16 mph 1014.4mb 50f 52f
7:42 10 13 mph 1014.5mb 50f 52f
7:36 10 14 mph 1014.6mb 50f 52f
7:30 13 14 mph 1014.6mb 50f 52f
7:24 10 15 mph 1014.5mb 50f 52f
7:18 11 15 mph 1014.5mb 50f 52f
7:12 13 15 mph 1014.4mb 50f 52f
7:06 11 14 mph 1014.4mb 50f 52f
7:00 10 14 mph 1014.4mb 50f 52f
6:54 10 14 mph 1014.4mb 50f 52f
6:48 11 14 mph 1014.4mb 50f 52f
6:42 11 15 mph 1014.4mb 50f 52f
6:36 13 15 mph 1014.4mb 50f 52f
6:30 10 14 mph 1014.5mb 50f 52f
6:24 9 13 mph 1014.4mb 50f 53f
6:18 8 11 mph 1014.5mb 50f 53f
6:12 8 11 mph 1014.5mb 50f 53f
6:06 6 9 mph 1014.4mb 50f 53f
6:00 8 13 mph 1014.2mb 50f 53f
5:54 10 13 mph 1014.1mb 50f 53f
5:48 10 14 mph 1014.1mb 50f 53f
5:42 9 10 mph 1014mb 50f 53f
5:36 9 13 mph 1014mb 50f 53f
5:30 10 11 mph 1014mb 50f 53f
5:24 9 10 mph 1013.9mb 50f 53f
5:18 7 11 mph 1014mb 50f 53f
5:12 9 11 mph 1014.1mb 50f 53f
5:06 9 11 mph 1014.1mb 50f 53f
5:00 8 10 mph 1014.1mb 50f 53f
4:54 7 9 mph 1014.1mb 50f 53f
4:48 7 9 mph 1014.1mb 50f 53f
4:42 6 8 mph 1014mb 50f 53f
4:36 6 9 mph 1013.9mb 50f 53f
4:30 7 10 mph 1014mb 50f 53f
4:24 6 8 mph 1014.1mb 50f 53f
4:18 6 10 mph 1014.1mb 50f 53f
4:12 9 10 mph 1014mb 50f 53f
4:06 9 11 mph 1014mb 50f 53f
4:00 7 8 mph 1014mb 50f 53f
3:54 7 10 mph 1014mb 50f 53f
3:48 9 11 mph 1013.9mb 50f 53f
3:42 8 11 mph 1013.8mb 50f 53f
3:36 8 13 mph 1013.8mb 50f 53f
3:30 7 9 mph 1013.8mb 50f -
3:24 7 9 mph 1013.9mb 50f -
3:18 7 10 mph 1014.1mb 50f 53f
3:12 10 11 mph 1014mb 50f 53f
3:06 10 13 mph 1014mb 50f 53f
3:00 9 11 mph 1014mb 50f 53f
2:54 7 9 mph 1014mb 50f 53f
2:48 8 10 mph 1014mb 50f 53f
2:42 6 7 mph 1014mb 50f 54f
2:36 5 9 mph 1014mb 50f 54f
2:30 8 9 mph 1013.9mb 50f 54f
2:24 6 8 mph 1013.8mb 50f 54f
2:18 6 8 mph 1013.8mb 50f 54f
2:12 6 8 mph 1013.8mb 50f 55f
2:06 6 8 mph 1013.8mb 50f 55f
2:00 6 8 mph 1013.8mb 50f 55f
1:54 7 10 mph 1013.8mb 50f 55f
1:48 8 10 mph 1013.7mb 50f 55f
1:42 8 10 mph 1013.8mb 50f 55f
1:36 6 8 mph 1013.8mb 50f 55f
1:30 5 8 mph - 50f -
1:24 7 8 mph - 50f -
1:18 7 8 mph 1013.9mb 50f 55f
1:12 7 8 mph 1014.1mb 50f 55f
1:06 7 8 mph 1014.2mb 50f 55f
1:00 6 8 mph 1014.3mb 50f 55f
12:54 6 8 mph 1014.4mb 50f 55f